createdAt,value
2023-05-14T01:04:04.692Z,64.01
2023-05-14T01:07:00.709Z,65.34
2023-05-14T01:09:47.830Z,65.63
2023-05-14T01:12:24.916Z,64.50
2023-05-14T01:15:01.839Z,64.39
2023-05-14T01:17:33.360Z,64.06
2023-05-14T01:20:01.149Z,63.78
2023-05-14T01:22:28.322Z,63.32
2023-05-14T01:24:55.539Z,63.07
2023-05-14T01:27:44.570Z,62.92
2023-05-14T01:30:18.996Z,62.84
2023-05-14T01:32:51.806Z,62.73
2023-05-14T01:35:23.259Z,62.70
2023-05-14T01:37:51.275Z,62.56
2023-05-14T01:40:19.950Z,62.55
2023-05-14T01:42:47.628Z,62.51
2023-05-14T01:45:15.587Z,61.43
2023-05-14T01:47:42.970Z,62.11
2023-05-14T01:50:11.103Z,62.15
2023-05-14T01:52:39.098Z,62.03
2023-05-14T01:55:07.134Z,61.72
2023-05-14T01:57:34.623Z,61.71
2023-05-14T02:00:02.105Z,61.41
2023-05-14T02:02:29.289Z,61.98
2023-05-14T02:04:56.997Z,62.38
2023-05-14T02:07:24.296Z,62.29
2023-05-14T02:09:51.557Z,62.88
2023-05-14T02:12:18.812Z,63.54
2023-05-14T02:14:46.591Z,61.85
2023-05-14T02:17:17.006Z,63.59
2023-05-14T02:19:45.199Z,63.69
2023-05-14T02:22:13.450Z,62.26
2023-05-14T02:24:41.671Z,62.74
2023-05-14T02:27:09.123Z,64.51
2023-05-14T02:29:36.733Z,64.25
2023-05-14T02:32:04.340Z,63.42
2023-05-14T02:34:33.997Z,63.41
2023-05-14T02:37:01.502Z,62.76
2023-05-14T02:39:28.811Z,62.94
2023-05-14T02:41:56.138Z,62.55
2023-05-14T02:44:23.476Z,62.60
2023-05-14T02:46:50.809Z,62.56
2023-05-14T02:49:18.203Z,62.46
2023-05-14T02:51:45.561Z,62.27
2023-05-14T02:54:12.871Z,61.99
2023-05-14T02:56:40.173Z,61.92
2023-05-14T02:59:07.622Z,63.60
2023-05-14T03:01:35.554Z,62.22
2023-05-14T03:04:03.442Z,63.68
2023-05-14T03:06:32.415Z,63.26
2023-05-14T03:08:59.791Z,63.28
2023-05-14T03:11:28.549Z,63.19
2023-05-14T03:13:56.031Z,62.62
2023-05-14T03:16:24.973Z,62.01
2023-05-14T03:18:53.090Z,62.68
2023-05-14T03:21:20.788Z,61.55
2023-05-14T03:23:48.076Z,61.96
2023-05-14T03:26:15.307Z,62.36
2023-05-14T03:28:42.658Z,61.91
2023-05-14T03:31:10.074Z,62.28
2023-05-14T03:33:38.771Z,61.66
2023-05-14T03:36:06.856Z,61.37
2023-05-14T03:38:34.198Z,61.81
2023-05-14T03:41:02.633Z,62.48
2023-05-14T03:43:31.010Z,62.27
2023-05-14T03:46:00.133Z,62.25
2023-05-14T03:48:28.862Z,61.95
2023-05-14T03:50:57.306Z,61.14
2023-05-14T03:53:24.679Z,61.51
2023-05-14T03:55:52.206Z,61.56
2023-05-14T03:58:19.879Z,62.27
2023-05-14T04:00:47.458Z,62.12
2023-05-14T04:03:15.026Z,61.48
2023-05-14T04:05:42.684Z,61.95
2023-05-14T04:08:10.063Z,62.01
2023-05-14T04:10:37.882Z,62.36
2023-05-14T04:13:05.467Z,61.60
2023-05-14T04:15:33.866Z,61.04
2023-05-14T04:18:02.124Z,61.64
2023-05-14T04:20:29.675Z,61.47
2023-05-14T04:22:56.938Z,61.16
2023-05-14T04:25:24.705Z,61.09
2023-05-14T04:27:52.484Z,60.68
2023-05-14T04:30:20.118Z,60.75
2023-05-14T04:32:48.924Z,60.70
2023-05-14T04:35:16.481Z,60.84
2023-05-14T04:37:43.848Z,60.51
2023-05-14T04:40:13.011Z,60.03
2023-05-14T04:42:40.331Z,59.87
2023-05-14T04:45:09.152Z,59.93
2023-05-14T04:47:36.587Z,59.86
2023-05-14T04:50:04.692Z,60.16
2023-05-14T04:52:31.984Z,59.62
2023-05-14T04:54:59.811Z,59.45
2023-05-14T04:57:27.188Z,59.60
2023-05-14T04:59:54.610Z,61.13
2023-05-14T05:02:22.250Z,62.51
2023-05-14T05:04:50.018Z,62.96
2023-05-14T05:07:17.454Z,62.40
2023-05-14T05:09:45.552Z,61.78
2023-05-14T05:12:13.336Z,61.35
2023-05-14T05:14:40.477Z,60.94
2023-05-14T05:17:07.664Z,60.79
2023-05-14T05:19:43.129Z,60.69
2023-05-14T05:22:12.169Z,60.67
2023-05-14T05:24:40.154Z,60.10
2023-05-14T05:27:07.512Z,59.93
2023-05-14T05:29:35.798Z,60.02
2023-05-14T05:32:03.216Z,59.86
2023-05-14T05:34:30.464Z,59.69
2023-05-14T05:36:58.168Z,59.71
2023-05-14T05:39:25.465Z,59.86
2023-05-14T05:41:52.923Z,58.56
2023-05-14T05:44:20.821Z,59.18
2023-05-14T05:46:48.251Z,60.64
2023-05-14T05:49:15.471Z,61.86
2023-05-14T05:51:43.867Z,62.18
2023-05-14T05:54:13.379Z,62.16
2023-05-14T05:56:40.821Z,61.75
2023-05-14T05:59:08.506Z,61.23
2023-05-14T06:01:35.935Z,60.05
2023-05-14T06:04:04.972Z,59.09
2023-05-14T06:06:33.915Z,59.30
2023-05-14T06:09:02.413Z,59.65
2023-05-14T06:11:29.905Z,60.07
2023-05-14T06:13:58.069Z,60.43
2023-05-14T06:16:25.308Z,60.93
2023-05-14T06:18:56.790Z,60.85
2023-05-14T06:21:24.307Z,61.40
2023-05-14T06:23:51.664Z,61.34
2023-05-14T06:26:19.024Z,60.96
2023-05-14T06:28:46.285Z,61.34
2023-05-14T06:31:14.334Z,61.04
2023-05-14T06:33:41.647Z,60.83
2023-05-14T06:36:09.348Z,60.84
2023-05-14T06:38:36.760Z,60.61
2023-05-14T06:41:04.003Z,59.58
2023-05-14T06:43:31.764Z,58.92
2023-05-14T06:45:58.978Z,59.07
2023-05-14T06:48:28.162Z,58.75
2023-05-14T06:50:55.891Z,59.35
2023-05-14T06:53:23.116Z,58.90
2023-05-14T06:55:51.293Z,58.95
2023-05-14T06:58:18.662Z,58.58
2023-05-14T07:00:46.085Z,58.37
2023-05-14T07:03:13.313Z,58.29
2023-05-14T07:05:42.290Z,58.13
2023-05-14T07:08:11.822Z,57.66
2023-05-14T07:10:39.721Z,57.23
2023-05-14T07:13:07.178Z,56.53
2023-05-14T07:15:34.969Z,56.18
2023-05-14T07:18:02.449Z,56.52
2023-05-14T07:20:30.795Z,56.38
2023-05-14T07:22:58.244Z,56.09
2023-05-14T07:25:25.465Z,55.02
2023-05-14T07:27:52.754Z,53.92
2023-05-14T07:30:20.707Z,54.77
2023-05-14T07:32:48.125Z,54.91
2023-05-14T07:35:15.322Z,54.77
2023-05-14T07:37:44.047Z,54.62
2023-05-14T07:40:11.462Z,54.64
2023-05-14T07:42:39.820Z,54.55
2023-05-14T07:45:09.018Z,53.86
2023-05-14T07:47:36.414Z,53.00
2023-05-14T07:50:04.043Z,53.58
2023-05-14T07:52:31.550Z,53.33
2023-05-14T07:55:01.787Z,53.02
2023-05-14T07:57:29.082Z,53.43
2023-05-14T07:59:57.356Z,52.64
2023-05-14T08:02:24.701Z,52.12
2023-05-14T08:04:52.117Z,52.35
2023-05-14T08:07:20.067Z,52.10
2023-05-14T08:09:47.305Z,50.71
2023-05-14T08:12:14.813Z,50.73
2023-05-14T08:14:42.665Z,51.10
2023-05-14T08:17:10.086Z,51.17
2023-05-14T08:19:37.407Z,50.98
2023-05-14T08:22:04.870Z,50.44
2023-05-14T08:24:32.267Z,50.28
2023-05-14T08:26:59.553Z,49.28
2023-05-14T08:29:26.973Z,48.58
2023-05-14T08:31:54.422Z,48.63
2023-05-14T08:34:21.776Z,47.23
2023-05-14T08:36:49.436Z,46.45
2023-05-14T08:39:16.800Z,47.01
2023-05-14T08:41:45.385Z,46.58
2023-05-14T08:44:20.084Z,47.05
2023-05-14T08:46:50.202Z,46.52
2023-05-14T08:49:42.311Z,46.62
2023-05-14T08:52:11.033Z,46.98
2023-05-14T08:54:38.875Z,47.09
2023-05-14T08:57:10.089Z,46.71
2023-05-14T08:59:38.241Z,46.87
2023-05-14T09:02:07.153Z,46.60
2023-05-14T09:04:35.444Z,45.75
2023-05-14T09:07:04.468Z,45.52
2023-05-14T09:09:32.275Z,44.26
2023-05-14T09:11:59.993Z,44.15
2023-05-14T09:14:27.344Z,44.26
2023-05-14T09:16:55.330Z,43.75
2023-05-14T09:19:22.774Z,43.44
2023-05-14T09:21:50.976Z,43.26
2023-05-14T09:24:26.282Z,40.67
2023-05-14T09:26:58.712Z,40.11
2023-05-14T09:29:26.872Z,39.71
2023-05-14T09:31:55.137Z,40.38
2023-05-14T09:34:34.649Z,39.83
2023-05-14T09:37:07.296Z,39.07
2023-05-14T09:39:39.097Z,39.65
2023-05-14T09:42:06.747Z,40.41
2023-05-14T09:44:34.132Z,40.55
2023-05-14T09:47:01.758Z,40.60
2023-05-14T09:49:29.009Z,40.45
2023-05-14T09:51:58.293Z,39.12
2023-05-14T09:54:27.670Z,39.48
2023-05-14T09:56:55.833Z,39.77
2023-05-14T09:59:23.378Z,39.79
2023-05-14T10:01:51.971Z,39.81
2023-05-14T10:04:20.161Z,38.97
2023-05-14T10:06:52.404Z,39.14
2023-05-14T10:09:23.947Z,39.47
2023-05-14T10:11:54.574Z,39.89
2023-05-14T10:14:43.769Z,38.57
2023-05-14T10:17:18.899Z,38.52
2023-05-14T10:19:57.842Z,39.43
2023-05-14T10:22:31.707Z,39.44
2023-05-14T10:24:59.805Z,38.32
2023-05-14T10:27:27.357Z,37.33
2023-05-14T10:29:56.398Z,38.18
2023-05-14T10:32:26.170Z,38.62
2023-05-14T10:34:54.165Z,38.12
2023-05-14T10:37:26.447Z,38.52
2023-05-14T10:39:55.583Z,37.89
2023-05-14T10:42:36.605Z,37.89
2023-05-14T10:45:09.247Z,38.71
2023-05-14T10:47:42.447Z,38.10
2023-05-14T10:50:12.372Z,38.79
2023-05-14T10:52:45.999Z,39.52
2023-05-14T10:55:15.618Z,39.25
2023-05-14T10:57:46.677Z,38.50
2023-05-14T11:00:15.161Z,38.58
2023-05-14T11:02:45.120Z,39.01
2023-05-14T11:05:16.262Z,38.86
2023-05-14T11:07:49.500Z,38.28
2023-05-14T11:10:22.676Z,38.27
2023-05-14T11:12:51.701Z,38.82
2023-05-14T11:15:24.113Z,39.50
2023-05-14T11:17:53.314Z,39.28
2023-05-14T11:20:22.793Z,38.18
2023-05-14T11:22:52.048Z,38.98
2023-05-14T11:25:19.426Z,39.25
2023-05-14T11:27:48.963Z,39.35
2023-05-14T11:30:18.509Z,39.62
2023-05-14T11:32:47.874Z,39.85
2023-05-14T11:35:15.954Z,40.26
2023-05-14T11:37:44.168Z,40.01
2023-05-14T11:40:19.286Z,40.03
2023-05-14T11:42:47.534Z,39.91
2023-05-14T11:45:26.012Z,39.81
2023-05-14T11:47:57.266Z,40.51
2023-05-14T11:50:24.870Z,40.41
2023-05-14T11:52:57.286Z,40.78
2023-05-14T11:55:24.876Z,41.07
2023-05-14T11:57:52.697Z,41.30
2023-05-14T12:00:22.420Z,41.50
2023-05-14T12:02:50.453Z,41.97
2023-05-14T12:05:17.954Z,41.78
2023-05-14T12:07:46.727Z,41.92
2023-05-14T12:10:14.312Z,41.90
2023-05-14T12:12:45.561Z,41.96
2023-05-14T12:15:14.375Z,42.09
2023-05-14T12:17:42.431Z,42.22
2023-05-14T12:20:11.802Z,42.73
2023-05-14T12:22:39.803Z,42.48
2023-05-14T12:25:15.735Z,42.43
2023-05-14T12:27:45.113Z,43.01
2023-05-14T12:32:53.230Z,41.96
2023-05-14T12:35:33.494Z,42.19
2023-05-14T12:38:00.909Z,42.55
2023-05-14T12:40:28.868Z,42.63
2023-05-14T12:42:56.875Z,42.17
2023-05-14T12:45:24.882Z,42.95
2023-05-14T12:47:52.613Z,42.80
2023-05-14T12:50:21.637Z,42.75
2023-05-14T12:52:49.953Z,42.38
2023-05-14T12:55:17.613Z,42.98
2023-05-14T12:57:45.094Z,43.33
2023-05-14T13:00:14.128Z,43.03
2023-05-14T13:02:43.627Z,42.79
2023-05-14T13:05:13.137Z,42.71
2023-05-14T13:07:40.679Z,43.56
2023-05-14T13:10:09.469Z,43.26
2023-05-14T13:12:41.757Z,42.68
2023-05-14T13:15:12.557Z,42.54
2023-05-14T13:17:42.341Z,41.97
2023-05-14T13:20:10.413Z,41.74
2023-05-14T13:22:38.928Z,41.59
2023-05-14T13:25:12.723Z,41.28
2023-05-14T13:27:55.308Z,41.25
2023-05-14T13:30:29.089Z,41.88
2023-05-14T13:32:57.292Z,41.80
2023-05-14T13:35:24.884Z,40.87
2023-05-14T13:37:52.726Z,40.57
2023-05-14T13:40:21.366Z,41.27
2023-05-14T13:43:00.913Z,41.52
2023-05-14T13:45:28.394Z,41.95
2023-05-14T13:47:57.240Z,42.18
2023-05-14T13:50:24.567Z,42.77
2023-05-14T13:52:52.777Z,42.81
2023-05-14T13:55:21.161Z,41.51
2023-05-14T13:57:48.453Z,40.99
2023-05-14T14:00:16.249Z,41.35
2023-05-14T14:02:43.574Z,41.32
2023-05-14T14:05:10.828Z,40.62
2023-05-14T14:07:44.197Z,41.22
2023-05-14T14:10:12.477Z,41.92
2023-05-14T14:12:40.162Z,42.01
2023-05-14T14:15:08.324Z,41.28
2023-05-14T14:17:35.708Z,41.66
2023-05-14T14:20:09.921Z,41.65
2023-05-14T14:22:37.738Z,41.29
2023-05-14T14:26:06.753Z,42.05
2023-05-14T14:28:42.087Z,41.97
2023-05-14T14:31:50.233Z,41.91
2023-05-14T14:34:59.620Z,42.03
2023-05-14T14:37:33.412Z,42.27
2023-05-14T14:40:21.686Z,42.07
2023-05-14T14:43:31.910Z,40.94
2023-05-14T14:47:19.084Z,41.18
2023-05-14T14:50:50.226Z,41.73
2023-05-14T14:54:34.255Z,41.96
2023-05-14T14:58:07.383Z,42.06
2023-05-14T15:01:56.533Z,42.13
2023-05-14T15:05:23.785Z,42.14
2023-05-14T15:08:53.348Z,42.59
2023-05-14T15:12:40.708Z,42.99
2023-05-14T15:16:10.085Z,43.25
2023-05-14T15:19:32.729Z,43.12
2023-05-14T15:22:11.959Z,43.28
2023-05-14T15:25:01.546Z,43.18
2023-05-14T15:28:28.953Z,43.27
2023-05-14T15:31:23.454Z,43.56
2023-05-14T15:34:50.303Z,43.87
2023-05-14T15:38:12.736Z,43.60
2023-05-14T15:41:50.801Z,43.60
2023-05-14T15:44:52.129Z,43.68
2023-05-14T15:48:19.491Z,43.70
2023-05-14T15:51:56.622Z,44.05
2023-05-14T15:55:27.782Z,44.12
2023-05-14T15:58:26.370Z,44.37
2023-05-14T16:01:58.696Z,44.52
2023-05-14T16:05:45.722Z,44.38
2023-05-14T16:09:17.208Z,44.67
2023-05-14T16:12:49.724Z,44.74
2023-05-14T16:16:36.995Z,44.75
2023-05-14T16:20:23.968Z,44.98
2023-05-14T16:23:51.828Z,45.24
2023-05-14T16:27:31.854Z,45.38
2023-05-14T16:30:49.488Z,45.54
2023-05-14T16:34:24.668Z,45.70
2023-05-14T16:37:52.674Z,45.76
2023-05-14T16:41:42.206Z,45.68
2023-05-14T16:45:09.181Z,45.93
2023-05-14T16:48:36.495Z,45.84
2023-05-14T16:52:04.889Z,46.20
2023-05-14T16:55:51.729Z,46.41
2023-05-14T16:59:18.695Z,46.53
2023-05-14T17:02:43.011Z,46.48
2023-05-14T17:06:25.910Z,46.56
2023-05-14T17:09:52.916Z,46.55
2023-05-14T17:13:40.111Z,46.65
2023-05-14T17:50:13.536Z,49.23
2023-05-14T17:52:42.684Z,49.44
2023-05-14T17:55:10.305Z,49.57
2023-05-14T17:57:38.107Z,49.72
2023-05-14T18:00:06.034Z,49.76
2023-05-14T18:02:33.494Z,49.82
2023-05-14T18:05:00.940Z,50.03
2023-05-14T18:07:28.517Z,50.37
2023-05-14T18:09:56.472Z,50.37
2023-05-14T18:12:26.004Z,50.59
2023-05-14T18:14:53.754Z,51.01
2023-05-14T18:17:21.364Z,52.64
2023-05-14T18:19:49.221Z,52.92
2023-05-14T18:22:16.756Z,53.55
2023-05-14T18:24:44.834Z,53.65
2023-05-14T18:27:12.530Z,53.80
2023-05-14T18:29:40.298Z,54.06
2023-05-14T18:32:07.915Z,54.48
2023-05-14T18:34:36.686Z,53.89
2023-05-14T18:37:04.190Z,54.53
2023-05-14T18:39:32.284Z,55.11
2023-05-14T18:41:59.703Z,55.15
2023-05-14T18:44:26.955Z,55.79
2023-05-14T18:46:56.333Z,57.40
2023-05-14T18:49:24.445Z,57.15
2023-05-14T18:51:51.962Z,57.95
2023-05-14T18:54:19.425Z,58.67
2023-05-14T18:56:47.753Z,59.78
2023-05-14T18:59:15.620Z,60.60
2023-05-14T19:01:42.963Z,61.37
2023-05-14T19:04:10.446Z,62.42
2023-05-14T19:06:40.718Z,61.83
2023-05-14T19:09:08.678Z,63.73
2023-05-14T19:11:36.087Z,63.54
2023-05-14T19:14:03.341Z,66.26
2023-05-14T19:16:30.655Z,65.95
2023-05-14T19:18:58.140Z,66.12
2023-05-14T19:21:25.496Z,66.10
2023-05-14T19:23:53.448Z,66.42
2023-05-14T19:26:21.999Z,66.05
2023-05-14T19:28:49.382Z,65.67
2023-05-14T19:31:16.702Z,65.97
2023-05-14T19:33:44.353Z,66.13
2023-05-14T19:36:12.237Z,65.48
2023-05-14T19:38:40.093Z,65.22
2023-05-14T19:41:07.316Z,65.38
2023-05-14T19:43:34.623Z,65.77
2023-05-14T19:46:02.739Z,65.69
2023-05-14T19:48:32.032Z,64.04
2023-05-14T19:50:59.719Z,65.32
2023-05-14T19:53:30.216Z,65.44
2023-05-14T19:55:57.950Z,65.50
2023-05-14T19:58:26.471Z,65.38
2023-05-14T20:00:57.937Z,65.35
2023-05-14T20:03:28.912Z,65.60
2023-05-14T20:05:56.935Z,65.52
2023-05-14T20:08:25.379Z,65.46
2023-05-14T20:10:53.239Z,65.41
2023-05-14T20:13:21.063Z,65.70
2023-05-14T20:15:49.730Z,65.66
2023-05-14T20:18:17.289Z,65.69
2023-05-14T20:20:44.811Z,66.00
2023-05-14T20:23:12.347Z,65.76
2023-05-14T20:25:40.464Z,65.76
2023-05-14T20:28:07.720Z,66.26
2023-05-14T20:30:35.016Z,66.69
2023-05-14T20:33:02.387Z,66.60
2023-05-14T20:35:30.153Z,66.50
2023-05-14T20:37:57.958Z,66.63
2023-05-14T20:40:25.739Z,66.25
2023-05-14T20:42:53.644Z,66.69
2023-05-14T20:45:20.997Z,66.46
2023-05-14T20:47:48.328Z,67.00
2023-05-14T20:50:15.853Z,67.46
2023-05-14T20:52:43.141Z,67.29
2023-05-14T20:55:10.713Z,66.06
2023-05-14T20:57:38.020Z,67.46
2023-05-14T21:00:09.199Z,66.21
2023-05-14T21:02:36.813Z,66.85
2023-05-14T21:05:04.560Z,67.11
2023-05-14T21:07:32.150Z,67.07
2023-05-14T21:09:59.763Z,66.07
2023-05-14T21:12:27.174Z,66.52
2023-05-14T21:14:54.296Z,67.02
2023-05-14T21:17:21.634Z,66.71
2023-05-14T21:19:48.979Z,66.90
2023-05-14T21:22:16.305Z,66.32
2023-05-14T21:24:43.543Z,66.07
2023-05-14T21:27:11.338Z,66.27
2023-05-14T21:29:39.085Z,66.48
2023-05-14T21:32:06.763Z,66.25
2023-05-14T21:34:34.248Z,67.26
2023-05-14T21:37:01.499Z,67.39
2023-05-14T21:39:28.927Z,67.31
2023-05-14T21:41:56.602Z,67.61
2023-05-14T21:44:24.080Z,67.19
2023-05-14T21:46:51.513Z,67.31
2023-05-14T21:49:19.798Z,67.37
2023-05-14T21:51:47.099Z,67.42
2023-05-14T21:54:14.440Z,66.92
2023-05-14T21:56:41.616Z,66.22
2023-05-14T21:59:08.846Z,66.39
2023-05-14T22:01:45.917Z,65.59
2023-05-14T22:04:23.102Z,66.28
2023-05-14T22:06:50.322Z,65.42
2023-05-14T22:09:17.545Z,65.79
2023-05-14T22:11:45.031Z,66.11
2023-05-14T22:14:12.236Z,65.90
2023-05-14T22:16:39.436Z,65.79
2023-05-14T22:19:06.939Z,66.07
2023-05-14T22:21:34.216Z,66.13
2023-05-14T22:24:01.446Z,66.76
2023-05-14T22:26:28.680Z,66.84
2023-05-14T22:28:57.988Z,66.82
2023-05-14T22:31:25.230Z,66.87
2023-05-14T22:33:53.579Z,67.12
2023-05-14T22:36:20.884Z,67.33
2023-05-14T22:38:48.054Z,67.34
2023-05-14T22:41:17.815Z,67.84
2023-05-14T22:43:44.982Z,68.23
2023-05-14T22:46:12.200Z,68.34
2023-05-14T22:48:39.911Z,68.67
2023-05-14T22:51:07.772Z,69.48
2023-05-14T22:53:34.882Z,68.71
2023-05-14T22:56:02.300Z,68.91
2023-05-14T22:58:29.683Z,68.88
2023-05-14T23:00:57.189Z,68.84
2023-05-14T23:03:24.752Z,68.91
2023-05-14T23:05:52.675Z,69.26
2023-05-14T23:08:19.778Z,69.74
2023-05-14T23:10:47.111Z,69.34
2023-05-14T23:13:14.245Z,69.24
2023-05-14T23:15:41.543Z,69.35
2023-05-14T23:18:09.178Z,69.40
2023-05-14T23:20:36.346Z,69.48
2023-05-14T23:23:03.640Z,69.73
2023-05-14T23:25:33.037Z,69.84
2023-05-14T23:28:00.212Z,70.07
2023-05-14T23:30:27.381Z,69.48
2023-05-14T23:32:54.644Z,69.39
2023-05-14T23:35:21.899Z,69.66
2023-05-14T23:37:51.396Z,70.55
2023-05-14T23:40:18.715Z,71.14
2023-05-14T23:42:45.883Z,70.93
2023-05-14T23:45:14.088Z,70.55
2023-05-14T23:47:41.907Z,70.31
2023-05-14T23:50:09.389Z,70.82
2023-05-14T23:52:36.622Z,70.52
2023-05-14T23:55:04.760Z,71.02
2023-05-14T23:57:32.069Z,71.06
2023-05-14T23:59:59.328Z,70.87
